Time;durP1;ratioP1;P1;durP2;ratioP2;P2;SDS_P1;SDS_P2;PMS_P1;PMS_P2;Temp;Humidity;BMP_temperature;BMP_pressure;BME280_temperature;BME280_humidity;BME280_pressure;Samples;Min_cycle;Max_cycle;Signal;HPM_P1;HPM_P2
2020/12/21 00:00:10;;;;;;;0.85;0.85;;;2.10;99.90;;;;;;5108857;28;20210;-69
2020/12/21 00:02:36;;;;;;;0.88;0.88;;;2.10;99.90;;;;;;5109411;28;20191;-69
2020/12/21 00:05:04;;;;;;;0.40;0.40;;;2.10;99.90;;;;;;5110695;28;20244;-69
2020/12/21 00:07:29;;;;;;;0.50;0.50;;;2.10;99.90;;;;;;5110713;28;20184;-69
2020/12/21 00:09:55;;;;;;;0.15;0.15;;;2.10;99.90;;;;;;5110594;28;20163;-69
2020/12/21 00:12:21;;;;;;;1.20;1.02;;;2.10;99.90;;;;;;5110522;28;20195;-68
2020/12/21 00:14:47;;;;;;;0.20;0.20;;;2.10;99.90;;;;;;5110495;28;20190;-69
2020/12/21 00:17:13;;;;;;;0.30;0.30;;;2.20;99.90;;;;;;5110444;28;20163;-68
2020/12/21 00:19:39;;;;;;;0.13;0.13;;;2.00;99.90;;;;;;5109231;28;20170;-69
2020/12/21 00:22:10;;;;;;;0.50;0.50;;;2.10;99.90;;;;;;5110558;28;20551;-69
2020/12/21 00:24:36;;;;;;;0.10;0.10;;;2.10;99.90;;;;;;5110408;28;20160;-69
2020/12/21 00:27:02;;;;;;;0.20;0.20;;;2.10;99.90;;;;;;5110311;28;20185;-69
2020/12/21 00:29:28;;;;;;;0.10;0.10;;;2.10;99.90;;;;;;5110248;28;20163;-69
2020/12/21 00:31:56;;;;;;;0.88;0.88;;;2.10;99.90;;;;;;5110283;28;20167;-69
2020/12/21 00:34:22;;;;;;;0.90;0.90;;;2.10;99.90;;;;;;5108816;28;20190;-68
2020/12/21 00:36:53;;;;;;;0.10;0.10;;;2.10;99.90;;;;;;5110255;28;20167;-68
2020/12/21 00:39:20;;;;;;;0.10;0.10;;;2.00;99.90;;;;;;5110133;28;20208;-68
2020/12/21 00:41:46;;;;;;;0.20;0.20;;;2.10;99.90;;;;;;5109753;28;20225;-68
2020/12/21 00:44:12;;;;;;;0.85;0.75;;;2.00;99.90;;;;;;5110000;28;20246;-69
2020/12/21 00:46:39;;;;;;;0.35;0.35;;;2.00;99.90;;;;;;5108698;28;20177;-69
2020/12/21 00:49:06;;;;;;;0.17;0.17;;;2.00;99.90;;;;;;5108627;28;20201;-68
2020/12/21 00:51:32;;;;;;;0.10;0.10;;;2.00;99.90;;;;;;5109991;28;20152;-68
2020/12/21 00:53:58;;;;;;;0.52;0.52;;;1.90;99.90;;;;;;5108409;28;20560;-68
2020/12/21 00:56:24;;;;;;;0.40;0.40;;;1.90;99.90;;;;;;5108598;28;20163;-68
2020/12/21 00:58:51;;;;;;;0.10;0.10;;;2.00;99.90;;;;;;5109776;28;20158;-69
2020/12/21 01:01:21;;;;;;;0.10;0.10;;;1.90;99.90;;;;;;5109871;28;20155;-68
2020/12/21 01:03:47;;;;;;;0.10;0.10;;;1.90;99.90;;;;;;5108491;28;20676;-68
2020/12/21 01:06:14;;;;;;;0.10;0.10;;;1.90;99.90;;;;;;5108358;28;20175;-68
2020/12/21 01:08:40;;;;;;;0.35;0.35;;;1.90;99.90;;;;;;5109670;28;20159;-69
2020/12/21 01:11:10;;;;;;;0.10;0.10;;;1.90;99.90;;;;;;5108333;28;20252;-68
2020/12/21 01:13:41;;;;;;;0.50;0.50;;;2.00;99.90;;;;;;5109674;28;20576;-68
2020/12/21 01:16:07;;;;;;;1.27;1.17;;;2.00;99.90;;;;;;5109646;28;20199;-68
2020/12/21 01:18:34;;;;;;;0.10;0.10;;;2.00;99.90;;;;;;5108219;28;20178;-68
2020/12/21 01:21:01;;;;;;;0.85;0.85;;;2.00;99.90;;;;;;5109582;28;20156;-69
2020/12/21 01:23:27;;;;;;;0.20;0.20;;;2.10;99.90;;;;;;5109520;28;20247;-68
2020/12/21 01:25:53;;;;;;;0.20;0.20;;;2.10;99.90;;;;;;5109517;28;20167;-69
2020/12/21 01:28:19;;;;;;;0.32;0.32;;;2.10;99.90;;;;;;5109430;28;20612;-69
2020/12/21 01:30:45;;;;;;;0.15;0.15;;;2.20;99.90;;;;;;5109447;28;20219;-69
2020/12/21 01:33:11;;;;;;;0.55;0.55;;;2.20;99.90;;;;;;5109414;28;20226;-68
2020/12/21 01:35:38;;;;;;;0.20;0.20;;;2.20;99.90;;;;;;5109347;28;20187;-69
2020/12/21 01:38:04;;;;;;;0.75;0.75;;;2.20;99.90;;;;;;5109381;28;20152;-68
2020/12/21 01:40:31;;;;;;;0.28;0.28;;;2.20;99.90;;;;;;5108195;28;20179;-68
2020/12/21 01:42:57;;;;;;;0.73;0.73;;;2.20;99.90;;;;;;5109082;28;20234;-69
2020/12/21 01:45:22;;;;;;;0.73;0.73;;;2.20;99.90;;;;;;5109318;28;20175;-69
2020/12/21 01:47:49;;;;;;;0.22;0.22;;;2.20;99.90;;;;;;5109266;28;20164;-68
2020/12/21 01:50:15;;;;;;;0.20;0.20;;;2.20;99.90;;;;;;5109390;28;20238;-69
2020/12/21 01:52:42;;;;;;;0.45;0.45;;;2.20;99.90;;;;;;5107919;28;20560;-69
2020/12/21 01:55:08;;;;;;;1.48;1.42;;;2.30;99.90;;;;;;5109166;28;20211;-69
2020/12/21 01:57:34;;;;;;;1.40;1.40;;;2.20;99.90;;;;;;5107961;28;20193;-68
2020/12/21 02:00:05;;;;;;;0.10;0.10;;;2.10;99.90;;;;;;5109168;28;20152;-69
2020/12/21 02:02:30;;;;;;;1.08;1.08;;;2.20;99.90;;;;;;5109185;28;20187;-68
2020/12/21 02:04:56;;;;;;;0.30;0.30;;;2.30;99.90;;;;;;5109142;28;20167;-68
2020/12/21 02:07:25;;;;;;;1.00;1.00;;;2.30;99.90;;;;;;5109247;28;20167;-69
2020/12/21 02:09:51;;;;;;;0.82;0.82;;;2.20;99.90;;;;;;5107781;28;20216;-69
2020/12/21 02:12:17;;;;;;;1.10;1.10;;;2.10;99.90;;;;;;5109126;28;20207;-69
2020/12/21 02:14:43;;;;;;;0.30;0.30;;;2.10;99.90;;;;;;5108942;28;20183;-69
2020/12/21 02:17:09;;;;;;;0.68;0.68;;;2.20;99.90;;;;;;5109093;28;20160;-69
2020/12/21 02:19:34;;;;;;;0.20;0.20;;;2.20;99.90;;;;;;5109064;28;20185;-69
2020/12/21 02:22:00;;;;;;;0.65;0.52;;;2.10;99.90;;;;;;5107612;28;20187;-68
2020/12/21 02:24:26;;;;;;;0.55;0.55;;;2.20;99.90;;;;;;5112561;28;20160;-69
2020/12/21 02:26:52;;;;;;;0.45;0.45;;;2.20;99.90;;;;;;5112662;28;20197;-69
2020/12/21 02:29:18;;;;;;;0.38;0.38;;;2.20;99.90;;;;;;5111386;28;20175;-69
2020/12/21 02:31:44;;;;;;;1.10;1.10;;;2.20;99.90;;;;;;5112558;28;20168;-68
2020/12/21 02:34:09;;;;;;;0.45;0.45;;;2.20;99.90;;;;;;5112409;28;20164;-69
2020/12/21 02:36:35;;;;;;;1.67;1.60;;;2.20;99.90;;;;;;5112486;28;20609;-68
2020/12/21 02:39:02;;;;;;;0.45;0.45;;;2.30;99.90;;;;;;5112480;28;20205;-68
2020/12/21 02:41:28;;;;;;;0.52;0.52;;;2.20;99.90;;;;;;5115984;28;20206;-69
2020/12/21 02:43:54;;;;;;;0.98;0.98;;;2.00;99.90;;;;;;5110897;28;20203;-69
2020/12/21 02:46:19;;;;;;;0.30;0.30;;;1.90;99.90;;;;;;5110971;28;20163;-69
2020/12/21 02:48:50;;;;;;;1.10;0.63;;;1.90;99.90;;;;;;5112206;28;20159;-69
2020/12/21 02:51:16;;;;;;;0.65;0.65;;;2.00;99.90;;;;;;5112218;28;20155;-69
2020/12/21 02:53:43;;;;;;;1.55;1.55;;;2.10;99.90;;;;;;5110755;28;20199;-69
2020/12/21 02:56:09;;;;;;;1.50;1.40;;;2.00;99.90;;;;;;5111926;28;20194;-69
2020/12/21 02:58:35;;;;;;;0.20;0.20;;;1.90;99.90;;;;;;5112007;28;20151;-69
2020/12/21 03:01:01;;;;;;;0.15;0.15;;;1.80;99.90;;;;;;5111925;28;20567;-69
2020/12/21 03:03:26;;;;;;;0.30;0.30;;;1.80;99.90;;;;;;5111839;28;20652;-69
2020/12/21 03:05:52;;;;;;;0.82;0.82;;;1.90;99.90;;;;;;5110606;28;20167;-69
2020/12/21 03:08:18;;;;;;;0.38;0.38;;;2.00;99.90;;;;;;5111845;28;20209;-69
2020/12/21 03:10:44;;;;;;;1.08;1.00;;;2.00;99.90;;;;;;5111770;28;20250;-69
2020/12/21 03:13:10;;;;;;;0.10;0.10;;;1.90;99.90;;;;;;5111811;28;20191;-68
2020/12/21 03:15:36;;;;;;;1.17;1.05;;;2.00;99.90;;;;;;5110298;28;20191;-68
2020/12/21 03:18:03;;;;;;;0.45;0.45;;;1.90;99.90;;;;;;5111770;28;20163;-68
2020/12/21 03:20:29;;;;;;;1.10;0.73;;;1.90;99.90;;;;;;5111622;28;20152;-68
2020/12/21 03:22:55;;;;;;;0.20;0.20;;;2.10;99.90;;;;;;5111488;28;20222;-69
2020/12/21 03:25:21;;;;;;;1.20;1.20;;;2.10;99.90;;;;;;5111522;28;20167;-69
2020/12/21 03:27:46;;;;;;;0.25;0.25;;;2.20;99.90;;;;;;5111455;28;20166;-69
2020/12/21 03:30:12;;;;;;;0.52;0.52;;;2.10;99.90;;;;;;5111481;28;20167;-68
2020/12/21 03:32:38;;;;;;;0.90;0.43;;;2.20;99.90;;;;;;5111384;28;20335;-68
2020/12/21 03:35:06;;;;;;;1.50;1.48;;;2.20;99.90;;;;;;5110106;28;20228;-69
2020/12/21 03:37:33;;;;;;;0.20;0.20;;;2.20;99.90;;;;;;5111125;28;20608;-69
2020/12/21 03:40:01;;;;;;;0.50;0.50;;;2.20;99.90;;;;;;5110871;28;20155;-68
2020/12/21 03:42:27;;;;;;;0.35;0.35;;;2.30;99.90;;;;;;5110693;28;20213;-68
2020/12/21 03:44:52;;;;;;;0.43;0.43;;;2.30;99.90;;;;;;5111043;28;20195;-68
2020/12/21 03:47:18;;;;;;;1.10;1.10;;;2.30;99.90;;;;;;5110989;28;20526;-69
2020/12/21 03:49:44;;;;;;;1.65;1.55;;;2.20;99.90;;;;;;5110293;28;20167;-69
2020/12/21 03:52:10;;;;;;;0.25;0.25;;;2.20;99.90;;;;;;5110651;28;20191;-69
2020/12/21 03:54:36;;;;;;;0.20;0.20;;;2.10;99.90;;;;;;5109277;28;20199;-68
2020/12/21 03:57:01;;;;;;;2.63;2.13;;;2.20;99.90;;;;;;5110601;28;20164;-69
2020/12/21 03:59:27;;;;;;;1.27;1.17;;;2.20;99.90;;;;;;5110496;28;20162;-69
2020/12/21 04:01:53;;;;;;;0.22;0.22;;;2.20;99.90;;;;;;5110676;28;20592;-69
2020/12/21 04:04:19;;;;;;;0.38;0.38;;;2.20;99.90;;;;;;5110623;28;20247;-69
2020/12/21 04:06:45;;;;;;;0.25;0.25;;;2.10;99.90;;;;;;5110360;28;20170;-69
2020/12/21 04:09:10;;;;;;;0.10;0.10;;;2.10;99.90;;;;;;5110391;28;20155;-69
2020/12/21 04:11:36;;;;;;;0.20;0.20;;;2.10;99.90;;;;;;5110482;28;20159;-68
2020/12/21 04:14:02;;;;;;;0.30;0.30;;;2.20;99.90;;;;;;5110305;28;20207;-69
2020/12/21 04:16:28;;;;;;;0.50;0.50;;;2.20;99.90;;;;;;5110375;28;20162;-69
2020/12/21 04:18:54;;;;;;;0.20;0.20;;;2.20;99.90;;;;;;5110353;28;20162;-68
2020/12/21 04:21:20;;;;;;;0.50;0.50;;;2.10;99.90;;;;;;5110385;28;20163;-69
2020/12/21 04:23:46;;;;;;;0.40;0.38;;;2.10;99.90;;;;;;5110270;28;20187;-69
2020/12/21 04:26:11;;;;;;;4.57;2.00;;;2.10;99.90;;;;;;5110355;28;20163;-68
2020/12/21 04:28:38;;;;;;;0.57;0.57;;;2.10;99.90;;;;;;5108819;28;20172;-69
2020/12/21 04:31:05;;;;;;;0.50;0.50;;;2.00;99.90;;;;;;5109035;28;20167;-68
2020/12/21 04:33:31;;;;;;;0.25;0.25;;;2.00;99.90;;;;;;5110173;28;20190;-69
2020/12/21 04:35:57;;;;;;;0.43;0.43;;;2.10;99.90;;;;;;5109909;28;20187;-69
2020/12/21 04:38:23;;;;;;;2.17;2.08;;;2.10;99.90;;;;;;5108418;28;20170;-68
2020/12/21 04:40:57;;;;;;;0.30;0.30;;;2.10;99.90;;;;;;5109948;28;20147;-68
2020/12/21 04:43:23;;;;;;;0.77;0.77;;;2.10;99.90;;;;;;5108448;28;20273;-69
2020/12/21 04:45:54;;;;;;;0.43;0.43;;;2.00;99.90;;;;;;5109727;28;20162;-68
2020/12/21 04:48:22;;;;;;;1.00;1.00;;;2.10;99.90;;;;;;5109805;28;20166;-68
2020/12/21 04:50:53;;;;;;;0.20;0.20;;;2.20;99.90;;;;;;5108195;28;20167;-69
2020/12/21 04:53:20;;;;;;;2.40;0.90;;;2.20;99.90;;;;;;5108530;28;20198;-69
2020/12/21 04:55:47;;;;;;;0.57;0.57;;;2.10;99.90;;;;;;5109502;28;20188;-68
2020/12/21 04:58:13;;;;;;;0.30;0.30;;;2.10;99.90;;;;;;5109518;28;20166;-69
2020/12/21 05:00:39;;;;;;;0.40;0.40;;;2.10;99.90;;;;;;5109601;28;20160;-68
2020/12/21 05:03:06;;;;;;;0.50;0.50;;;2.20;99.90;;;;;;5109352;28;20197;-68
2020/12/21 05:05:40;;;;;;;0.32;0.32;;;2.20;99.90;;;;;;5109592;28;20526;-69
2020/12/21 05:08:16;;;;;;;0.75;0.75;;;2.10;99.90;;;;;;5109516;28;20223;-69
2020/12/21 05:10:45;;;;;;;0.65;0.65;;;2.10;99.90;;;;;;5109356;28;20163;-68
2020/12/21 05:13:13;;;;;;;1.10;1.00;;;2.10;99.90;;;;;;5109479;28;20213;-68
2020/12/21 05:15:39;;;;;;;6.68;2.85;;;2.10;99.90;;;;;;5108963;28;20186;-68
2020/12/21 05:18:09;;;;;;;0.85;0.80;;;2.10;99.90;;;;;;5109114;28;20159;-69
2020/12/21 05:20:37;;;;;;;1.42;1.33;;;2.10;99.90;;;;;;5107881;28;20171;-69
2020/12/21 05:23:04;;;;;;;0.88;0.88;;;2.10;99.90;;;;;;5107709;28;20195;-69
2020/12/21 05:25:30;;;;;;;0.38;0.38;;;2.10;99.90;;;;;;5109283;28;20159;-69
2020/12/21 05:28:12;;;;;;;0.43;0.43;;;2.00;99.90;;;;;;5109300;28;20188;-69
2020/12/21 05:30:51;;;;;;;0.20;0.20;;;2.00;99.90;;;;;;5109237;28;20159;-69
2020/12/21 05:33:17;;;;;;;0.52;0.52;;;2.00;99.90;;;;;;5109087;28;20194;-68
2020/12/21 05:35:44;;;;;;;0.30;0.30;;;2.00;99.90;;;;;;5109133;28;20179;-69
2020/12/21 05:38:25;;;;;;;0.28;0.28;;;2.10;99.90;;;;;;5107754;28;20302;-69
2020/12/21 05:40:52;;;;;;;0.32;0.32;;;2.10;99.90;;;;;;5109107;28;20160;-68
2020/12/21 05:43:25;;;;;;;0.52;0.52;;;2.10;99.90;;;;;;5108618;28;20219;-68
2020/12/21 05:46:06;;;;;;;3.63;1.80;;;2.00;99.90;;;;;;5107712;28;20266;-69
2020/12/21 05:48:33;;;;;;;0.60;0.60;;;1.90;99.90;;;;;;5109209;28;20155;-68
2020/12/21 05:51:04;;;;;;;0.20;0.20;;;1.80;99.90;;;;;;5109032;28;20220;-69
2020/12/21 05:53:36;;;;;;;0.55;0.55;;;1.80;99.90;;;;;;5108904;28;20195;-69
2020/12/21 05:56:04;;;;;;;0.10;0.10;;;1.90;99.90;;;;;;5108919;28;20221;-68
2020/12/21 05:58:31;;;;;;;0.25;0.25;;;1.80;99.90;;;;;;5111180;28;20236;-69
2020/12/21 06:01:03;;;;;;;1.45;1.25;;;1.80;99.90;;;;;;5112742;28;20212;-68
2020/12/21 06:03:38;;;;;;;1.10;1.10;;;1.70;99.90;;;;;;5112375;28;20260;-68
2020/12/21 06:06:09;;;;;;;0.20;0.20;;;1.80;99.90;;;;;;5112897;28;20231;-68
2020/12/21 06:08:37;;;;;;;0.30;0.30;;;1.80;99.90;;;;;;5112623;28;20177;-68
2020/12/21 06:11:14;;;;;;;0.20;0.20;;;1.80;99.90;;;;;;5111413;28;20164;-68
2020/12/21 06:14:05;;;;;;;0.22;0.22;;;1.80;99.90;;;;;;5112482;28;20191;-69
2020/12/21 06:16:37;;;;;;;0.47;0.47;;;1.80;99.90;;;;;;5112617;28;20162;-69
2020/12/21 06:19:13;;;;;;;0.30;0.30;;;1.90;99.90;;;;;;5112675;28;20159;-68
2020/12/21 06:21:48;;;;;;;0.52;0.52;;;1.90;99.90;;;;;;5111208;28;20612;-69
2020/12/21 06:24:21;;;;;;;0.70;0.70;;;1.90;99.90;;;;;;5112494;28;20179;-69
2020/12/21 06:26:48;;;;;;;0.80;0.80;;;1.80;99.90;;;;;;5112399;28;20159;-69
2020/12/21 06:29:20;;;;;;;0.30;0.30;;;1.80;99.90;;;;;;5112051;28;20279;-68
2020/12/21 06:31:52;;;;;;;0.32;0.32;;;1.90;99.90;;;;;;5111645;28;20219;-68
2020/12/21 06:34:30;;;;;;;0.10;0.10;;;1.90;99.90;;;;;;5112005;28;20176;-69
2020/12/21 06:37:19;;;;;;;0.10;0.10;;;1.90;99.90;;;;;;5112446;28;20574;-68
2020/12/21 06:39:56;;;;;;;0.55;0.55;;;1.90;99.90;;;;;;5112113;28;20224;-69
2020/12/21 06:42:25;;;;;;;0.55;0.55;;;2.00;99.90;;;;;;5111320;28;20301;-68
2020/12/21 06:44:54;;;;;;;1.17;0.77;;;2.00;99.90;;;;;;5110436;28;20182;-68
2020/12/21 06:47:25;;;;;;;1.40;1.40;;;2.00;99.90;;;;;;5110571;28;20206;-69
2020/12/21 06:49:52;;;;;;;0.43;0.43;;;2.00;99.90;;;;;;5111928;28;20227;-68
2020/12/21 06:52:18;;;;;;;0.20;0.20;;;1.90;99.90;;;;;;5110419;28;20213;-69
2020/12/21 06:54:44;;;;;;;0.57;0.57;;;1.80;99.90;;;;;;5110415;28;20201;-69
2020/12/21 06:57:11;;;;;;;0.38;0.38;;;1.80;99.90;;;;;;5111895;28;20156;-69
2020/12/21 06:59:38;;;;;;;0.45;0.45;;;1.80;99.90;;;;;;5111756;28;20159;-69
2020/12/21 07:02:05;;;;;;;1.27;1.17;;;1.90;99.90;;;;;;5111820;28;20693;-69
2020/12/21 07:04:33;;;;;;;0.35;0.35;;;2.00;99.90;;;;;;5111809;28;20163;-68
2020/12/21 07:07:05;;;;;;;0.20;0.20;;;2.10;99.90;;;;;;5111400;28;20163;-69
2020/12/21 07:09:32;;;;;;;0.20;0.20;;;2.20;99.90;;;;;;5110111;28;20159;-69
2020/12/21 07:12:01;;;;;;;0.32;0.32;;;2.10;99.90;;;;;;5111355;28;20163;-69
2020/12/21 07:14:34;;;;;;;0.17;0.17;;;2.30;99.90;;;;;;5111430;28;20183;-69
2020/12/21 07:17:07;;;;;;;0.55;0.55;;;2.30;99.90;;;;;;5109973;28;20163;-69
2020/12/21 07:19:35;;;;;;;0.52;0.52;;;2.30;99.90;;;;;;5111365;28;20170;-69
2020/12/21 07:22:03;;;;;;;0.25;0.25;;;2.40;99.90;;;;;;5109776;28;20162;-69
2020/12/21 07:24:30;;;;;;;0.85;0.85;;;2.50;99.90;;;;;;5111007;28;20152;-68
2020/12/21 07:26:56;;;;;;;0.10;0.10;;;2.40;99.90;;;;;;5110705;28;20163;-69
2020/12/21 07:29:22;;;;;;;1.20;0.82;;;2.50;99.90;;;;;;5110926;28;20612;-68
2020/12/21 07:31:49;;;;;;;0.60;0.60;;;2.50;99.90;;;;;;5109559;28;20168;-68
2020/12/21 07:34:15;;;;;;;1.33;1.25;;;2.40;99.90;;;;;;5110959;28;20159;-68
2020/12/21 07:36:42;;;;;;;1.30;1.20;;;2.50;99.90;;;;;;5109203;28;20490;-68
2020/12/21 07:39:13;;;;;;;0.20;0.20;;;2.50;99.90;;;;;;5110998;28;20167;-68
2020/12/21 07:41:43;;;;;;;0.70;0.70;;;2.50;99.90;;;;;;5110670;28;20206;-68
2020/12/21 07:44:19;;;;;;;1.67;1.42;;;2.50;99.90;;;;;;5110539;28;20281;-68
2020/12/21 07:46:58;;;;;;;0.70;0.70;;;2.50;99.90;;;;;;5109288;28;20167;-68
2020/12/21 07:49:24;;;;;;;0.85;0.63;;;2.40;99.90;;;;;;5110367;28;20162;-68
2020/12/21 07:51:57;;;;;;;1.05;1.05;;;2.40;99.90;;;;;;5109194;28;20191;-67
2020/12/21 07:54:23;;;;;;;0.40;0.40;;;2.40;99.90;;;;;;5110621;28;20156;-67
2020/12/21 07:56:59;;;;;;;0.32;0.32;;;2.40;99.90;;;;;;5109237;28;20163;-67
2020/12/21 07:59:25;;;;;;;1.58;0.85;;;2.50;99.90;;;;;;5110467;28;20177;-68
2020/12/21 08:01:57;;;;;;;1.40;1.30;;;2.50;99.90;;;;;;5110391;28;20580;-68
2020/12/21 08:04:22;;;;;;;1.40;1.30;;;2.60;99.90;;;;;;5109152;28;20194;-67
2020/12/21 08:06:48;;;;;;;1.10;1.05;;;2.60;99.90;;;;;;5110340;28;20152;-68
2020/12/21 08:09:14;;;;;;;0.20;0.20;;;2.50;99.90;;;;;;5109999;28;20156;-68
2020/12/21 08:11:41;;;;;;;1.02;1.02;;;2.50;99.90;;;;;;5110080;28;20163;-68
2020/12/21 08:14:14;;;;;;;0.15;0.15;;;2.60;99.90;;;;;;5108789;28;20216;-68
2020/12/21 08:16:39;;;;;;;0.30;0.30;;;2.60;99.90;;;;;;5109934;28;20152;-67
2020/12/21 08:19:13;;;;;;;1.40;1.35;;;2.60;99.90;;;;;;5110191;28;20180;-68
2020/12/21 08:21:40;;;;;;;1.08;1.05;;;2.50;99.90;;;;;;5109694;28;20152;-68
2020/12/21 08:24:09;;;;;;;1.10;1.10;;;2.50;99.90;;;;;;5108621;28;20244;-68
2020/12/21 08:26:36;;;;;;;0.30;0.30;;;2.50;99.90;;;;;;5110058;28;20186;-68
2020/12/21 08:29:03;;;;;;;0.65;0.65;;;2.50;99.90;;;;;;5109944;28;20167;-68
2020/12/21 08:31:30;;;;;;;1.35;1.27;;;2.60;99.90;;;;;;5109927;28;20155;-68
2020/12/21 08:33:56;;;;;;;1.65;1.40;;;2.50;99.90;;;;;;5108667;28;20195;-68
2020/12/21 08:36:29;;;;;;;1.67;1.58;;;2.50;99.90;;;;;;5109748;28;20570;-67
2020/12/21 08:39:16;;;;;;;1.65;1.55;;;2.50;99.90;;;;;;5109731;28;20182;-67
2020/12/21 08:41:44;;;;;;;1.52;1.45;;;2.50;99.90;;;;;;5109549;28;20222;-67
2020/12/21 08:44:17;;;;;;;0.30;0.30;;;2.60;99.90;;;;;;5109512;28;20193;-68
2020/12/21 08:46:44;;;;;;;0.77;0.70;;;2.60;99.90;;;;;;5109656;28;20167;-67
2020/12/21 08:49:10;;;;;;;0.63;0.63;;;2.70;99.90;;;;;;5109540;28;20158;-67
2020/12/21 08:51:36;;;;;;;0.17;0.17;;;2.80;99.90;;;;;;5109573;28;20156;-67
2020/12/21 08:54:02;;;;;;;1.23;1.23;;;2.90;99.90;;;;;;5109508;28;20197;-67
2020/12/21 08:56:28;;;;;;;0.85;0.85;;;2.90;99.90;;;;;;5109319;28;20282;-67
2020/12/21 08:58:54;;;;;;;1.20;1.20;;;2.90;99.90;;;;;;5109333;28;20159;-67
2020/12/21 09:01:20;;;;;;;1.88;1.75;;;2.90;99.90;;;;;;5109356;28;20187;-67
2020/12/21 09:03:46;;;;;;;0.20;0.20;;;2.80;99.90;;;;;;5109130;28;20187;-67
2020/12/21 09:06:24;;;;;;;1.50;1.40;;;2.90;99.90;;;;;;5107858;28;20178;-67
2020/12/21 09:08:51;;;;;;;2.03;1.70;;;3.00;99.90;;;;;;5109298;28;20147;-67
2020/12/21 09:11:19;;;;;;;2.35;2.20;;;3.00;99.90;;;;;;5102174;28;20187;-66
2020/12/21 09:13:45;;;;;;;2.13;2.03;;;3.00;99.90;;;;;;5105718;28;20219;-67
2020/12/21 09:16:12;;;;;;;0.40;0.40;;;3.00;99.90;;;;;;5107218;28;20244;-67
2020/12/21 09:18:38;;;;;;;0.73;0.73;;;3.00;99.90;;;;;;5088237;28;20202;-67
2020/12/21 09:21:04;;;;;;;0.98;0.98;;;3.10;99.90;;;;;;5088686;28;20156;-67
2020/12/21 09:23:30;;;;;;;0.13;0.13;;;3.10;99.90;;;;;;5088708;28;20187;-67
2020/12/21 09:25:56;;;;;;;1.77;1.77;;;3.20;99.90;;;;;;5088732;28;20168;-67
2020/12/21 09:28:22;;;;;;;2.55;1.00;;;3.10;99.90;;;;;;5088873;28;20164;-67
2020/12/21 09:30:48;;;;;;;1.80;1.70;;;3.10;99.90;;;;;;5088594;28;20190;-67
2020/12/21 09:33:14;;;;;;;1.40;1.40;;;3.00;99.90;;;;;;5090658;28;20195;-67
2020/12/21 09:35:40;;;;;;;0.35;0.35;;;3.00;99.90;;;;;;5092858;28;20191;-66
2020/12/21 09:38:05;;;;;;;0.32;0.32;;;3.10;99.90;;;;;;5091342;28;20168;-66
2020/12/21 09:40:31;;;;;;;0.65;0.65;;;3.10;99.90;;;;;;5091683;28;20168;-66
2020/12/21 09:42:57;;;;;;;1.95;1.85;;;3.00;99.90;;;;;;5092238;28;20226;-67
2020/12/21 09:45:23;;;;;;;0.90;0.90;;;2.90;99.90;;;;;;5092082;28;20182;-67
2020/12/21 09:47:49;;;;;;;0.73;0.73;;;2.80;99.90;;;;;;5092760;28;20164;-66
2020/12/21 09:50:15;;;;;;;2.22;2.13;;;2.80;99.90;;;;;;5092554;28;20164;-66
2020/12/21 09:52:41;;;;;;;1.50;1.20;;;2.90;99.90;;;;;;5092218;28;20219;-67
2020/12/21 09:55:11;;;;;;;0.88;0.88;;;2.90;99.90;;;;;;5092438;28;20246;-66
2020/12/21 09:57:38;;;;;;;0.10;0.10;;;2.90;99.90;;;;;;5092436;28;20188;-66
2020/12/21 10:00:04;;;;;;;0.20;0.20;;;3.00;99.90;;;;;;5092451;28;20156;-67
2020/12/21 10:02:30;;;;;;;1.40;0.88;;;3.00;99.90;;;;;;5090861;28;20701;-67
2020/12/21 10:04:56;;;;;;;0.55;0.55;;;3.00;99.90;;;;;;5092225;28;20164;-67
2020/12/21 10:07:22;;;;;;;0.20;0.20;;;3.00;99.90;;;;;;5090429;28;20164;-66
2020/12/21 10:09:47;;;;;;;0.20;0.20;;;2.90;99.90;;;;;;5091364;28;20519;-66
2020/12/21 10:12:13;;;;;;;0.17;0.17;;;3.00;99.90;;;;;;5092018;28;20200;-66
2020/12/21 10:14:43;;;;;;;0.50;0.50;;;3.00;99.90;;;;;;5091751;28;20188;-67
2020/12/21 10:17:09;;;;;;;2.55;2.45;;;3.00;99.90;;;;;;5092090;28;20151;-67
2020/12/21 10:19:36;;;;;;;1.13;1.13;;;3.20;99.90;;;;;;5092098;28;20152;-67
2020/12/21 10:22:02;;;;;;;0.93;0.93;;;3.30;99.90;;;;;;5092013;28;20191;-67
2020/12/21 10:24:28;;;;;;;0.73;0.73;;;3.40;99.90;;;;;;5091958;28;20160;-66
2020/12/21 10:26:54;;;;;;;1.05;1.05;;;3.50;99.90;;;;;;5091894;28;20210;-66
2020/12/21 10:29:20;;;;;;;0.57;0.57;;;3.40;99.90;;;;;;5089925;28;20164;-66
2020/12/21 10:31:46;;;;;;;1.85;1.75;;;3.50;99.90;;;;;;5091660;28;20199;-66
2020/12/21 10:34:12;;;;;;;0.10;0.10;;;3.60;99.90;;;;;;5091363;28;20199;-67
2020/12/21 10:36:38;;;;;;;1.00;1.00;;;3.80;99.90;;;;;;5090087;28;20160;-67
2020/12/21 10:39:04;;;;;;;2.03;1.95;;;4.00;99.90;;;;;;5091803;28;20156;-66
2020/12/21 10:41:34;;;;;;;1.38;1.38;;;4.20;99.90;;;;;;5089825;28;20164;-67
2020/12/21 10:44:00;;;;;;;0.45;0.45;;;4.40;99.90;;;;;;5090754;28;20184;-66
2020/12/21 10:46:26;;;;;;;0.28;0.28;;;4.50;99.90;;;;;;5091662;28;20530;-66
2020/12/21 10:48:53;;;;;;;1.30;1.25;;;4.60;99.90;;;;;;5091324;28;20152;-66
2020/12/21 10:51:26;;;;;;;1.17;1.17;;;4.50;99.90;;;;;;5091333;28;20223;-67
2020/12/21 10:53:52;;;;;;;0.40;0.40;;;4.70;99.90;;;;;;5091410;28;20551;-66
2020/12/21 10:56:18;;;;;;;0.40;0.40;;;4.80;99.90;;;;;;5091497;28;20188;-67
2020/12/21 10:58:44;;;;;;;1.40;1.38;;;4.80;99.90;;;;;;5090115;28;20175;-66
2020/12/21 11:01:10;;;;;;;1.25;1.25;;;4.80;99.90;;;;;;5091036;28;20162;-67
2020/12/21 11:03:36;;;;;;;1.30;1.30;;;4.90;99.90;;;;;;5091409;28;20164;-66
2020/12/21 11:06:03;;;;;;;1.90;1.75;;;5.00;99.90;;;;;;5089892;28;20175;-67
2020/12/21 11:08:28;;;;;;;0.90;0.90;;;5.10;99.90;;;;;;5091184;28;20159;-67
2020/12/21 11:10:54;;;;;;;2.35;2.13;;;5.00;99.90;;;;;;5091121;28;20235;-66
2020/12/21 11:13:20;;;;;;;1.02;1.02;;;4.90;99.90;;;;;;5090853;28;20164;-67
2020/12/21 11:15:46;;;;;;;1.35;0.98;;;4.70;99.90;;;;;;5091006;28;20187;-67
2020/12/21 11:18:12;;;;;;;2.25;2.05;;;4.40;99.90;;;;;;5089167;28;20168;-66
2020/12/21 11:20:38;;;;;;;3.90;3.03;;;4.40;99.90;;;;;;5090868;28;20167;-67
2020/12/21 11:23:04;;;;;;;1.95;1.83;;;4.40;99.90;;;;;;5089801;28;20172;-67
2020/12/21 11:25:30;;;;;;;1.45;1.35;;;4.60;99.90;;;;;;5090947;28;20191;-66
2020/12/21 11:27:59;;;;;;;1.48;1.38;;;4.60;99.90;;;;;;5089494;28;20176;-67
2020/12/21 11:30:25;;;;;;;1.23;1.23;;;4.60;99.90;;;;;;5089388;28;20187;-66
2020/12/21 11:32:51;;;;;;;1.13;0.95;;;4.70;99.90;;;;;;5090712;28;20156;-67
2020/12/21 11:35:17;;;;;;;1.05;1.05;;;4.60;99.90;;;;;;5090539;28;20195;-66
2020/12/21 11:37:43;;;;;;;0.95;0.95;;;4.70;99.90;;;;;;5090662;28;20164;-67
2020/12/21 11:40:09;;;;;;;4.82;1.65;;;4.80;99.90;;;;;;5089469;28;20160;-67
2020/12/21 11:42:35;;;;;;;0.90;0.90;;;4.80;99.90;;;;;;5090520;28;20688;-67
2020/12/21 11:45:01;;;;;;;0.25;0.25;;;4.70;99.90;;;;;;5090207;28;20192;-67
2020/12/21 11:47:26;;;;;;;0.20;0.20;;;4.60;99.90;;;;;;5090621;28;20223;-66
2020/12/21 11:49:52;;;;;;;1.90;1.83;;;4.40;99.90;;;;;;5090377;28;20233;-66
2020/12/21 11:52:18;;;;;;;0.10;0.10;;;4.30;99.90;;;;;;5090404;28;20156;-67
2020/12/21 11:54:44;;;;;;;0.80;0.77;;;4.50;99.90;;;;;;5089556;28;20204;-67
2020/12/21 11:57:10;;;;;;;1.00;0.70;;;4.80;99.90;;;;;;5089619;28;20500;-67
2020/12/21 11:59:36;;;;;;;0.80;0.80;;;5.30;99.90;;;;;;5089773;28;20156;-66
2020/12/21 12:02:02;;;;;;;5.63;3.63;;;5.60;99.90;;;;;;5089939;28;20182;-67
2020/12/21 12:04:29;;;;;;;0.95;0.95;;;5.90;99.90;;;;;;5090369;28;20248;-67
2020/12/21 12:06:59;;;;;;;4.05;1.98;;;6.40;99.90;;;;;;5089869;28;20172;-67
2020/12/21 12:09:25;;;;;;;1.05;1.00;;;6.50;99.90;;;;;;5089782;28;20192;-67
2020/12/21 12:11:55;;;;;;;1.65;1.65;;;6.60;99.90;;;;;;5088633;28;20160;-67
2020/12/21 12:14:22;;;;;;;2.22;2.05;;;6.80;99.90;;;;;;5088551;28;20222;-67
2020/12/21 12:16:49;;;;;;;0.57;0.57;;;6.80;99.90;;;;;;5089603;28;20523;-67
2020/12/21 12:19:15;;;;;;;1.90;1.73;;;6.40;99.90;;;;;;5093847;28;20176;-67
2020/12/21 12:21:41;;;;;;;2.50;2.22;;;5.90;99.90;;;;;;5104111;28;20167;-67
2020/12/21 12:24:07;;;;;;;2.45;1.92;;;5.50;99.90;;;;;;5089624;28;20223;-67
2020/12/21 12:26:33;;;;;;;0.60;0.60;;;5.20;99.90;;;;;;5091838;28;20171;-67
2020/12/21 12:28:59;;;;;;;9.25;3.08;;;5.10;99.90;;;;;;5109943;28;20580;-67
2020/12/21 12:31:25;;;;;;;1.75;1.65;;;5.20;99.90;;;;;;5109716;28;20163;-67
2020/12/21 12:33:51;;;;;;;0.70;0.70;;;5.20;99.90;;;;;;5108589;28;20219;-67
2020/12/21 12:36:19;;;;;;;0.35;0.35;;;5.30;99.90;;;;;;5097277;28;20244;-67
2020/12/21 12:38:45;;;;;;;2.20;2.10;;;5.20;99.90;;;;;;5089428;28;20160;-66
2020/12/21 12:41:11;;;;;;;0.75;0.75;;;5.00;99.90;;;;;;5087951;28;20175;-67
2020/12/21 12:43:38;;;;;;;1.23;1.20;;;4.80;99.90;;;;;;5089083;28;20243;-69
2020/12/21 12:46:05;;;;;;;2.15;1.95;;;4.50;99.90;;;;;;5089209;28;20156;-67
2020/12/21 12:48:32;;;;;;;0.40;0.40;;;4.40;99.90;;;;;;5089396;28;20165;-67
2020/12/21 12:50:58;;;;;;;1.60;1.50;;;4.10;99.90;;;;;;5089135;28;20163;-67
2020/12/21 12:53:24;;;;;;;2.85;1.58;;;4.00;99.90;;;;;;5101487;28;20285;-67
2020/12/21 12:55:50;;;;;;;0.63;0.63;;;4.10;99.90;;;;;;5109694;28;20213;-68
2020/12/21 12:58:15;;;;;;;1.52;1.42;;;4.10;99.90;;;;;;5109437;28;20155;-67